createdAt,value
2023-03-24T00:02:09.700Z,74.75
2023-03-24T00:06:09.757Z,74.11
2023-03-24T00:10:09.906Z,73.57
2023-03-24T00:14:09.965Z,71.75
2023-03-24T00:18:10.086Z,72.32
2023-03-24T00:22:10.168Z,72.86
2023-03-24T00:26:10.279Z,71.95
2023-03-24T00:30:10.381Z,70.81
2023-03-24T00:34:10.474Z,72.42
2023-03-24T00:38:11.348Z,68.07
2023-03-24T00:42:10.364Z,67.18
2023-03-24T00:46:10.293Z,68.38
2023-03-24T00:50:10.221Z,68.51
2023-03-24T00:54:10.130Z,65.85
2023-03-24T00:58:10.143Z,68.09
2023-03-24T01:02:10.043Z,66.13
2023-03-24T01:06:09.934Z,66.37
2023-03-24T01:10:09.881Z,66.51
2023-03-24T01:14:09.988Z,64.96
2023-03-24T01:18:09.826Z,63.66
2023-03-24T01:22:09.714Z,64.49
2023-03-24T01:26:09.662Z,64.76
2023-03-24T01:30:09.694Z,64.11
2023-03-24T01:34:09.794Z,64.74
2023-03-24T01:38:09.810Z,63.97
2023-03-24T01:42:09.831Z,64.29
2023-03-24T01:46:09.916Z,60.05
2023-03-24T01:50:09.890Z,60.68
2023-03-24T01:54:09.929Z,60.68
2023-03-24T01:58:09.985Z,60.88
2023-03-24T02:02:09.997Z,63.14
2023-03-24T02:06:10.070Z,61.68
2023-03-24T02:10:10.164Z,59.15
2023-03-24T02:14:10.274Z,60.01
2023-03-24T02:18:10.339Z,59.63
2023-03-24T02:22:10.292Z,60.22
2023-03-24T02:26:10.270Z,58.83
2023-03-24T02:30:10.250Z,58.03
2023-03-24T02:34:10.208Z,57.12
2023-03-24T02:38:10.215Z,58.13
2023-03-24T02:42:10.180Z,58.43
2023-03-24T02:46:10.174Z,58.41
2023-03-24T02:50:10.278Z,58.05
2023-03-24T02:54:10.140Z,59.99
2023-03-24T02:58:10.129Z,58.10
2023-03-24T03:02:10.104Z,56.91
2023-03-24T03:06:10.095Z,57.54
2023-03-24T03:10:10.069Z,54.54
2023-03-24T03:14:10.035Z,56.48
2023-03-24T03:18:10.050Z,53.77
2023-03-24T03:22:09.996Z,55.50
2023-03-24T03:26:09.962Z,53.01
2023-03-24T03:30:09.970Z,53.98
2023-03-24T03:34:09.933Z,53.15
2023-03-24T03:38:09.915Z,53.68
2023-03-24T03:42:09.879Z,52.46
2023-03-24T03:46:09.898Z,49.64
2023-03-24T03:50:09.879Z,53.10
2023-03-24T03:54:09.866Z,53.98
2023-03-24T03:58:09.833Z,51.00
2023-03-24T04:02:09.840Z,51.10
2023-03-24T04:06:09.810Z,51.70
2023-03-24T04:10:09.755Z,51.01
2023-03-24T04:14:09.733Z,52.09
2023-03-24T04:18:09.741Z,47.88
2023-03-24T04:22:09.701Z,48.86
2023-03-24T04:26:09.714Z,50.21
2023-03-24T04:30:09.671Z,48.57
2023-03-24T04:34:09.667Z,49.19
2023-03-24T04:38:09.722Z,49.10
2023-03-24T04:42:09.704Z,47.32
2023-03-24T04:46:09.782Z,47.56
2023-03-24T04:50:09.683Z,45.47
2023-03-24T04:54:09.700Z,48.69
2023-03-24T04:58:09.737Z,48.38
2023-03-24T05:02:09.708Z,46.36
2023-03-24T05:06:09.726Z,44.54
2023-03-24T05:10:09.788Z,46.61
2023-03-24T05:14:09.741Z,45.93
2023-03-24T05:18:09.795Z,49.05
2023-03-24T05:22:09.770Z,46.25
2023-03-24T05:26:09.785Z,45.18
2023-03-24T05:30:09.808Z,43.09
2023-03-24T05:34:09.772Z,43.45
2023-03-24T05:38:09.806Z,42.37
2023-03-24T05:42:09.762Z,43.78
2023-03-24T05:46:09.808Z,43.96
2023-03-24T05:50:09.796Z,44.20
2023-03-24T05:54:09.779Z,44.21
2023-03-24T05:58:09.836Z,44.00
2023-03-24T06:02:09.893Z,45.17
2023-03-24T06:06:09.831Z,46.35
2023-03-24T06:10:09.856Z,48.49
2023-03-24T06:14:09.891Z,46.70
2023-03-24T06:18:09.868Z,44.71
2023-03-24T06:22:09.888Z,45.50
2023-03-24T06:26:09.913Z,46.20
2023-03-24T06:30:09.954Z,48.02
2023-03-24T06:34:09.977Z,45.09
2023-03-24T06:38:09.928Z,47.79
2023-03-24T06:42:09.988Z,54.89
2023-03-24T06:46:10.035Z,71.83
2023-03-24T06:50:10.005Z,94.55
2023-03-24T06:54:10.053Z,82.53
2023-03-24T06:58:09.920Z,51.00
2023-03-24T07:02:10.547Z,81.49
2023-03-24T07:06:10.201Z,82.33
2023-03-24T07:10:18.940Z,74.33
2023-03-24T07:14:11.045Z,70.65
2023-03-24T07:18:10.874Z,74.88
2023-03-24T07:22:11.051Z,81.24
2023-03-24T07:26:11.308Z,88.51
2023-03-24T07:30:11.582Z,87.71
2023-03-24T07:34:11.462Z,100.48
2023-03-24T07:38:11.416Z,109.15
2023-03-24T07:42:12.988Z,120.11
2023-03-24T07:46:11.575Z,139.48
2023-03-24T07:50:11.522Z,120.04
2023-03-24T07:54:11.554Z,153.96
2023-03-24T07:58:11.352Z,160.38
2023-03-24T08:02:11.570Z,118.66
2023-03-24T08:06:11.495Z,127.06
2023-03-24T08:10:11.540Z,140.50
2023-03-24T08:14:11.532Z,177.05
2023-03-24T08:18:12.594Z,192.21
2023-03-24T08:22:11.766Z,206.28
2023-03-24T08:26:11.656Z,249.53
2023-03-24T08:30:11.616Z,250.00
2023-03-24T08:34:11.504Z,249.39
2023-03-24T08:38:11.576Z,243.43
2023-03-24T08:42:11.553Z,235.18
2023-03-24T08:46:13.903Z,189.40
2023-03-24T08:50:11.531Z,200.48
2023-03-24T08:54:11.140Z,191.07
2023-03-24T08:58:11.565Z,186.15
2023-03-24T09:02:11.000Z,178.12
2023-03-24T09:06:10.923Z,161.63
2023-03-24T09:10:10.902Z,152.30
2023-03-24T09:14:11.047Z,140.60
2023-03-24T09:18:10.722Z,135.90
2023-03-24T09:22:10.669Z,133.42
2023-03-24T09:26:10.593Z,122.96
2023-03-24T09:30:10.578Z,118.04
2023-03-24T09:34:10.437Z,126.25
2023-03-24T09:38:10.313Z,118.74
2023-03-24T09:42:10.571Z,134.30
2023-03-24T09:46:10.713Z,130.54
2023-03-24T09:50:10.561Z,94.67
2023-03-24T09:54:10.269Z,92.82
2023-03-24T09:58:10.342Z,117.75
2023-03-24T10:02:10.570Z,128.05
2023-03-24T10:06:10.580Z,137.14
2023-03-24T10:10:10.732Z,119.34
2023-03-24T10:14:10.618Z,127.74
2023-03-24T10:18:10.680Z,133.37
2023-03-24T10:22:10.455Z,140.06
2023-03-24T10:26:10.378Z,142.12
2023-03-24T10:30:10.294Z,144.13
2023-03-24T10:34:10.211Z,141.34
2023-03-24T10:38:10.624Z,125.77
2023-03-24T10:42:10.039Z,133.18
2023-03-24T10:46:10.099Z,134.38
2023-03-24T10:50:14.186Z,132.95
2023-03-24T10:54:11.087Z,137.45
2023-03-24T10:58:09.615Z,156.55
2023-03-24T11:02:09.677Z,158.63
2023-03-24T11:06:10.084Z,158.88
2023-03-24T11:10:10.126Z,140.54
2023-03-24T11:14:09.841Z,147.88
2023-03-24T11:18:09.878Z,154.55
2023-03-24T11:22:10.169Z,152.65
2023-03-24T11:26:09.898Z,161.40
2023-03-24T11:30:10.118Z,156.30
2023-03-24T11:34:09.895Z,157.34
2023-03-24T11:38:10.146Z,162.70
2023-03-24T11:42:10.114Z,175.72
2023-03-24T11:46:10.149Z,184.37
2023-03-24T11:50:09.698Z,195.27
2023-03-24T11:54:10.106Z,207.86
2023-03-24T11:58:09.519Z,215.06
2023-03-24T12:02:09.606Z,220.61
2023-03-24T12:06:09.394Z,212.17
2023-03-24T12:10:09.339Z,202.47
2023-03-24T12:14:09.676Z,205.77
2023-03-24T12:18:09.182Z,187.45
2023-03-24T12:22:09.156Z,185.92
2023-03-24T12:26:09.134Z,195.31
2023-03-24T12:30:09.145Z,196.30
2023-03-24T12:34:08.677Z,129.33
2023-03-24T12:38:08.620Z,147.17
2023-03-24T12:42:08.571Z,126.27
2023-03-24T12:46:08.569Z,113.52
2023-03-24T12:50:08.511Z,116.30
2023-03-24T12:54:08.469Z,96.65
2023-03-24T12:58:08.656Z,98.53
2023-03-24T13:02:08.511Z,51.36
2023-03-24T13:06:16.848Z,54.49
2023-03-24T13:10:09.455Z,57.22
2023-03-24T13:14:08.354Z,56.52
2023-03-24T13:18:09.444Z,60.72
2023-03-24T13:22:08.298Z,69.44
2023-03-24T13:26:08.330Z,55.31
2023-03-24T13:30:09.181Z,35.14
2023-03-24T13:34:08.423Z,19.06
2023-03-24T13:38:08.608Z,35.07
2023-03-24T13:42:08.594Z,42.29
2023-03-24T13:46:09.305Z,54.80
2023-03-24T13:50:08.657Z,39.42
2023-03-24T13:54:08.682Z,40.53
2023-03-24T13:58:08.701Z,16.70
2023-03-24T14:02:08.738Z,24.21
2023-03-24T14:06:09.592Z,27.09
2023-03-24T14:10:08.995Z,50.68
2023-03-24T14:14:08.908Z,47.51
2023-03-24T14:18:08.777Z,87.81
2023-03-24T14:22:08.717Z,122.24
2023-03-24T14:26:08.575Z,149.04
2023-03-24T14:30:08.464Z,167.51
2023-03-24T14:34:08.365Z,178.37
2023-03-24T14:38:08.242Z,177.56
2023-03-24T14:42:08.144Z,175.59
2023-03-24T14:46:08.138Z,182.68
2023-03-24T14:50:07.973Z,196.00
2023-03-24T14:54:07.902Z,206.60
2023-03-24T14:58:07.803Z,211.50
2023-03-24T15:02:07.791Z,215.36
2023-03-24T15:06:07.641Z,216.83
2023-03-24T15:10:07.518Z,218.96
2023-03-24T15:14:07.424Z,218.70
2023-03-24T15:18:07.370Z,218.47
2023-03-24T15:22:07.286Z,218.15
2023-03-24T15:26:07.316Z,217.45
2023-03-24T15:30:07.324Z,218.84
2023-03-24T15:34:07.379Z,216.16
2023-03-24T15:38:07.408Z,215.94
2023-03-24T15:42:07.415Z,214.54
2023-03-24T15:46:12.550Z,213.92
2023-03-24T15:50:08.365Z,214.14
2023-03-24T15:54:07.270Z,213.08
2023-03-24T15:58:07.168Z,211.73
2023-03-24T16:02:07.079Z,211.78
2023-03-24T16:06:07.082Z,210.83
2023-03-24T16:10:07.154Z,211.72
2023-03-24T16:14:07.209Z,211.85
2023-03-24T16:18:07.284Z,210.48
2023-03-24T16:22:07.325Z,210.43
2023-03-24T16:26:07.364Z,208.65
2023-03-24T16:30:07.446Z,207.50
2023-03-24T16:34:07.474Z,207.32
2023-03-24T16:38:07.560Z,206.49
2023-03-24T16:42:07.650Z,203.95
2023-03-24T16:46:07.714Z,204.38
2023-03-24T16:50:07.724Z,203.49
2023-03-24T16:54:07.814Z,202.76
2023-03-24T16:58:07.870Z,203.36
2023-03-24T17:02:07.942Z,202.73
2023-03-24T17:06:08.022Z,202.53
2023-03-24T17:10:08.129Z,202.16
2023-03-24T17:14:08.184Z,202.53
2023-03-24T17:18:08.318Z,201.43
2023-03-24T17:22:08.331Z,201.76
2023-03-24T17:26:08.414Z,200.64
2023-03-24T17:30:08.493Z,199.78
2023-03-24T17:34:20.578Z,200.85
2023-03-24T17:38:09.482Z,201.35
2023-03-24T17:42:08.436Z,201.80
2023-03-24T17:46:08.353Z,202.18
2023-03-24T17:50:08.265Z,202.13
2023-03-24T17:54:08.355Z,204.27
2023-03-24T17:58:08.524Z,201.85
2023-03-24T18:02:08.635Z,201.44
2023-03-24T18:06:08.784Z,198.27
2023-03-24T18:10:08.879Z,197.23
2023-03-24T18:14:09.099Z,197.20
2023-03-24T18:18:09.149Z,195.57
2023-03-24T18:22:09.287Z,194.88
2023-03-24T18:26:09.432Z,194.74
2023-03-24T18:30:09.576Z,193.62
2023-03-24T18:34:09.698Z,192.06
2023-03-24T18:38:09.874Z,191.28
2023-03-24T18:42:09.974Z,191.32
2023-03-24T18:46:10.223Z,190.81
2023-03-24T18:50:10.301Z,190.38
2023-03-24T18:54:10.493Z,188.72
2023-03-24T18:58:10.352Z,189.29
2023-03-24T19:02:10.302Z,188.05
2023-03-24T19:06:10.200Z,188.56
2023-03-24T19:10:10.140Z,187.98
2023-03-24T19:14:10.040Z,186.34
2023-03-24T19:18:10.052Z,186.06
2023-03-24T19:22:09.892Z,186.13
2023-03-24T19:26:09.853Z,184.69
2023-03-24T19:30:09.790Z,183.72
2023-03-24T19:34:09.851Z,182.66
2023-03-24T19:38:09.823Z,183.03
2023-03-24T19:42:09.745Z,182.22
2023-03-24T19:46:09.722Z,181.80
2023-03-24T19:50:09.569Z,180.74
2023-03-24T19:54:09.518Z,180.83
2023-03-24T19:58:09.394Z,179.93
2023-03-24T20:02:09.381Z,178.25
2023-03-24T20:06:09.259Z,177.73
2023-03-24T20:10:09.165Z,178.01
2023-03-24T20:14:09.063Z,175.48
2023-03-24T20:18:08.989Z,175.70
2023-03-24T20:22:08.940Z,174.57
2023-03-24T20:26:09.314Z,175.15
2023-03-24T20:30:08.767Z,174.07
2023-03-24T20:34:08.679Z,173.67
2023-03-24T20:38:08.620Z,171.63
2023-03-24T20:42:08.530Z,172.02
2023-03-24T20:46:08.508Z,169.28
2023-03-24T20:50:08.369Z,171.11
2023-03-24T20:54:08.286Z,170.04
2023-03-24T20:58:08.293Z,170.82
2023-03-24T21:02:08.407Z,167.59
2023-03-24T21:06:08.454Z,168.07
2023-03-24T21:10:08.627Z,167.89
2023-03-24T21:14:08.791Z,167.45
2023-03-24T21:18:08.922Z,167.34
2023-03-24T21:22:09.089Z,165.06
2023-03-24T21:26:09.211Z,166.41
2023-03-24T21:30:09.302Z,164.97
2023-03-24T21:34:09.504Z,164.14
2023-03-24T21:38:09.660Z,165.10
2023-03-24T21:42:09.738Z,162.49
2023-03-24T21:46:09.903Z,161.53
2023-03-24T21:50:09.916Z,161.34
2023-03-24T21:54:09.936Z,161.14
2023-03-24T21:58:09.941Z,160.14
2023-03-24T22:02:10.002Z,159.58
2023-03-24T22:06:10.022Z,158.77
2023-03-24T22:10:10.059Z,158.18
2023-03-24T22:14:10.380Z,158.72
2023-03-24T22:18:10.169Z,157.42
2023-03-24T22:22:10.193Z,156.59
2023-03-24T22:26:10.330Z,155.93
2023-03-24T22:30:10.405Z,156.50
2023-03-24T22:34:10.406Z,155.28
2023-03-24T22:38:10.491Z,154.33
2023-03-24T22:42:10.562Z,153.81
2023-03-24T22:46:10.735Z,153.12
2023-03-24T22:50:10.728Z,154.12
2023-03-24T22:54:10.812Z,151.70
2023-03-24T22:58:10.908Z,151.95
2023-03-24T23:02:11.055Z,152.31
2023-03-24T23:06:11.117Z,150.45
2023-03-24T23:10:11.218Z,149.94
2023-03-24T23:14:11.302Z,149.84
2023-03-24T23:18:11.361Z,149.34
2023-03-24T23:22:11.461Z,148.99
2023-03-24T23:26:11.560Z,147.57
2023-03-24T23:30:11.720Z,148.52
2023-03-24T23:34:11.808Z,146.83
2023-03-24T23:38:11.833Z,147.13
2023-03-24T23:42:11.920Z,147.24
2023-03-24T23:46:12.000Z,145.53
2023-03-24T23:50:12.067Z,145.45
2023-03-24T23:54:12.140Z,143.72
2023-03-24T23:58:12.127Z,142.94
